createdAt,value
2023-04-20T00:00:19.646Z,1.78
2023-04-20T00:01:20.523Z,2.17
2023-04-20T00:02:19.726Z,2.34
2023-04-20T00:03:19.816Z,2.09
2023-04-20T00:04:19.661Z,2.10
2023-04-20T00:05:19.737Z,2.01
2023-04-20T00:06:19.746Z,1.60
2023-04-20T00:07:19.791Z,2.00
2023-04-20T00:08:19.818Z,1.91
2023-04-20T00:09:19.849Z,1.87
2023-04-20T00:10:19.883Z,2.05
2023-04-20T00:11:19.913Z,2.04
2023-04-20T00:12:19.974Z,1.91
2023-04-20T00:13:20.006Z,2.38
2023-04-20T00:14:20.032Z,2.18
2023-04-20T00:15:20.173Z,2.04
2023-04-20T00:16:20.139Z,2.10
2023-04-20T00:17:20.193Z,1.97
2023-04-20T00:18:20.190Z,2.48
2023-04-20T00:19:20.221Z,2.22
2023-04-20T00:20:20.265Z,2.33
2023-04-20T00:21:20.311Z,1.82
2023-04-20T00:22:20.345Z,2.06
2023-04-20T00:23:21.099Z,2.17
2023-04-20T00:24:20.420Z,2.03
2023-04-20T00:25:20.465Z,2.22
2023-04-20T00:26:20.505Z,2.00
2023-04-20T00:27:20.544Z,2.18
2023-04-20T00:28:20.592Z,1.95
2023-04-20T00:29:20.632Z,2.30
2023-04-20T00:30:20.689Z,1.96
2023-04-20T00:31:20.808Z,2.08
2023-04-20T00:32:20.782Z,1.98
2023-04-20T00:33:20.796Z,2.14
2023-04-20T00:34:20.850Z,2.01
2023-04-20T00:35:20.885Z,1.87
2023-04-20T00:36:20.923Z,2.09
2023-04-20T00:37:20.976Z,2.08
2023-04-20T00:38:21.090Z,2.04
2023-04-20T00:39:21.037Z,1.71
2023-04-20T00:40:21.100Z,2.09
2023-04-20T00:41:21.128Z,2.12
2023-04-20T00:42:21.208Z,1.82
2023-04-20T00:43:21.203Z,2.02
2023-04-20T00:44:22.035Z,1.90
2023-04-20T00:45:21.277Z,1.89
2023-04-20T00:46:21.337Z,1.90
2023-04-20T00:47:21.369Z,1.88
2023-04-20T00:48:21.385Z,1.78
2023-04-20T00:49:21.503Z,2.00
2023-04-20T00:50:21.463Z,2.20
2023-04-20T00:51:21.511Z,1.68
2023-04-20T00:52:21.541Z,1.98
2023-04-20T00:53:21.582Z,2.31
2023-04-20T00:54:22.558Z,1.82
2023-04-20T00:55:21.671Z,1.92
2023-04-20T00:56:21.719Z,2.10
2023-04-20T00:57:21.750Z,1.99
2023-04-20T00:58:21.808Z,2.00
2023-04-20T00:59:21.849Z,1.66
2023-04-20T01:00:21.882Z,2.00
2023-04-20T01:01:22.006Z,2.02
2023-04-20T01:02:22.113Z,2.04
2023-04-20T01:03:22.152Z,2.24
2023-04-20T01:04:22.160Z,1.75
2023-04-20T01:05:22.094Z,1.78
2023-04-20T01:06:22.187Z,2.19
2023-04-20T01:07:22.176Z,1.86
2023-04-20T01:08:22.211Z,1.95
2023-04-20T01:09:22.255Z,2.03
2023-04-20T01:10:22.312Z,2.01
2023-04-20T01:11:22.347Z,2.06
2023-04-20T01:12:22.395Z,1.89
2023-04-20T01:13:22.450Z,1.58
2023-04-20T01:14:22.480Z,2.12
2023-04-20T01:15:22.520Z,1.75
2023-04-20T01:16:22.585Z,2.07
2023-04-20T01:17:22.650Z,1.67
2023-04-20T01:18:22.714Z,1.86
2023-04-20T01:19:22.700Z,2.23
2023-04-20T01:20:22.740Z,1.69
2023-04-20T01:21:22.797Z,2.10
2023-04-20T01:22:22.822Z,1.77
2023-04-20T01:23:22.855Z,1.85
2023-04-20T01:24:22.888Z,2.00
2023-04-20T01:25:22.933Z,2.01
2023-04-20T01:26:23.033Z,1.84
2023-04-20T01:27:23.038Z,1.84
2023-04-20T01:28:23.097Z,1.79
2023-04-20T01:29:23.122Z,1.96
2023-04-20T01:30:23.156Z,1.89
2023-04-20T01:31:24.101Z,1.71
2023-04-20T01:32:23.321Z,1.69
2023-04-20T01:33:23.293Z,2.04
2023-04-20T01:34:23.319Z,1.84
2023-04-20T01:35:23.370Z,1.87
2023-04-20T01:36:23.404Z,1.76
2023-04-20T01:37:23.439Z,1.94
2023-04-20T01:38:23.486Z,2.20
2023-04-20T01:39:23.543Z,1.71
2023-04-20T01:40:23.567Z,1.91
2023-04-20T01:41:23.684Z,1.79
2023-04-20T01:42:23.652Z,1.72
2023-04-20T01:43:23.708Z,1.97
2023-04-20T01:44:23.744Z,1.86
2023-04-20T01:45:23.782Z,1.98
2023-04-20T01:46:23.841Z,1.80
2023-04-20T01:47:23.922Z,1.56
2023-04-20T01:48:23.923Z,1.65
2023-04-20T01:49:23.969Z,1.88
2023-04-20T01:50:24.017Z,1.66
2023-04-20T01:51:24.044Z,1.78
2023-04-20T01:52:24.097Z,1.88
2023-04-20T01:53:24.149Z,3.22
2023-04-20T01:54:24.195Z,1.98
2023-04-20T01:55:24.239Z,1.60
2023-04-20T01:56:24.293Z,1.59
2023-04-20T01:57:24.350Z,1.88
2023-04-20T01:58:24.385Z,1.87
2023-04-20T01:59:24.427Z,2.17
2023-04-20T02:00:24.473Z,1.70
2023-04-20T02:01:24.599Z,1.70
2023-04-20T02:02:24.702Z,1.40
2023-04-20T02:03:24.793Z,1.89
2023-04-20T02:04:24.622Z,1.59
2023-04-20T02:05:24.673Z,1.76
2023-04-20T02:06:24.717Z,1.81
2023-04-20T02:07:24.763Z,1.69
2023-04-20T02:08:24.816Z,1.62
2023-04-20T02:09:24.879Z,1.51
2023-04-20T02:10:24.920Z,1.91
2023-04-20T02:11:25.019Z,1.49
2023-04-20T02:12:25.013Z,1.75
2023-04-20T02:13:25.067Z,1.77
2023-04-20T02:14:25.102Z,1.85
2023-04-20T02:15:25.146Z,1.86
2023-04-20T02:16:25.247Z,1.71
2023-04-20T02:17:25.329Z,1.63
2023-04-20T02:18:25.293Z,1.69
2023-04-20T02:19:25.337Z,1.74
2023-04-20T02:20:25.382Z,1.74
2023-04-20T02:21:25.419Z,1.79
2023-04-20T02:22:25.467Z,1.55
2023-04-20T02:23:25.595Z,1.57
2023-04-20T02:24:25.565Z,1.75
2023-04-20T02:25:26.583Z,1.88
2023-04-20T02:26:25.654Z,1.95
2023-04-20T02:27:26.586Z,1.63
2023-04-20T02:28:25.754Z,1.84
2023-04-20T02:29:25.803Z,1.84
2023-04-20T02:30:25.846Z,1.39
2023-04-20T02:31:25.991Z,1.89
2023-04-20T02:32:25.942Z,1.88
2023-04-20T02:33:25.972Z,1.88
2023-04-20T02:34:26.023Z,1.72
2023-04-20T02:35:26.051Z,1.46
2023-04-20T02:36:26.095Z,1.59
2023-04-20T02:37:26.145Z,1.53
2023-04-20T02:38:26.186Z,1.81
2023-04-20T02:39:26.228Z,1.74
2023-04-20T02:40:26.270Z,1.91
2023-04-20T02:41:26.321Z,1.55
2023-04-20T02:42:26.369Z,1.57
2023-04-20T02:43:26.421Z,1.62
2023-04-20T02:44:26.465Z,1.68
2023-04-20T02:45:26.510Z,1.71
2023-04-20T02:46:26.581Z,1.50
2023-04-20T02:47:26.621Z,1.46
2023-04-20T02:48:26.661Z,1.48
2023-04-20T02:49:26.684Z,1.53
2023-04-20T02:50:26.736Z,1.89
2023-04-20T02:51:26.768Z,1.91
2023-04-20T02:52:26.808Z,1.77
2023-04-20T02:53:26.861Z,1.72
2023-04-20T02:54:26.891Z,1.52
2023-04-20T02:55:27.055Z,1.90
2023-04-20T02:56:26.986Z,1.85
2023-04-20T02:57:27.052Z,1.59
2023-04-20T02:58:27.101Z,1.52
2023-04-20T02:59:27.143Z,1.81
2023-04-20T03:00:27.189Z,1.76
2023-04-20T03:01:27.327Z,1.93
2023-04-20T03:02:27.520Z,1.40
2023-04-20T03:03:27.436Z,1.46
2023-04-20T03:04:27.465Z,1.09
2023-04-20T03:05:27.379Z,1.78
2023-04-20T03:06:27.411Z,1.56
2023-04-20T03:07:27.455Z,1.45
2023-04-20T03:08:27.470Z,1.57
2023-04-20T03:09:27.506Z,1.88
2023-04-20T03:10:27.526Z,1.64
2023-04-20T03:11:27.559Z,1.49
2023-04-20T03:12:27.575Z,1.65
2023-04-20T03:13:27.605Z,1.75
2023-04-20T03:14:27.618Z,1.97
2023-04-20T03:15:27.639Z,1.59
2023-04-20T03:16:27.693Z,1.58
2023-04-20T03:17:27.690Z,1.70
2023-04-20T03:18:28.121Z,1.77
2023-04-20T03:19:27.738Z,1.59
2023-04-20T03:20:27.752Z,1.56
2023-04-20T03:21:27.792Z,1.77
2023-04-20T03:22:28.609Z,1.52
2023-04-20T03:23:27.813Z,1.73
2023-04-20T03:24:27.824Z,1.84
2023-04-20T03:25:27.840Z,1.66
2023-04-20T03:26:27.924Z,1.83
2023-04-20T03:27:27.846Z,1.49
2023-04-20T03:28:27.913Z,1.58
2023-04-20T03:29:27.868Z,1.67
2023-04-20T03:30:27.868Z,1.62
2023-04-20T03:31:27.960Z,1.51
2023-04-20T03:32:27.904Z,1.75
2023-04-20T03:33:27.886Z,1.39
2023-04-20T03:34:27.884Z,1.44
2023-04-20T03:35:27.889Z,1.38
2023-04-20T03:36:27.888Z,1.52
2023-04-20T03:37:27.886Z,1.62
2023-04-20T03:38:27.880Z,1.38
2023-04-20T03:39:27.896Z,1.53
2023-04-20T03:40:27.899Z,1.71
2023-04-20T03:41:27.903Z,1.78
2023-04-20T03:42:27.907Z,1.79
2023-04-20T03:43:27.958Z,1.50
2023-04-20T03:44:27.906Z,1.52
2023-04-20T03:45:27.956Z,1.32
2023-04-20T03:46:28.020Z,1.70
2023-04-20T03:47:27.947Z,1.96
2023-04-20T03:48:27.936Z,1.56
2023-04-20T03:49:27.957Z,1.38
2023-04-20T03:50:27.984Z,1.41
2023-04-20T03:51:27.988Z,1.52
2023-04-20T03:52:28.022Z,1.30
2023-04-20T03:53:28.039Z,1.72
2023-04-20T03:54:28.031Z,1.80
2023-04-20T03:55:28.096Z,1.41
2023-04-20T03:56:28.058Z,1.30
2023-04-20T03:57:28.090Z,1.68
2023-04-20T03:58:28.101Z,1.22
2023-04-20T03:59:28.115Z,1.66
2023-04-20T04:00:28.106Z,1.39
2023-04-20T04:01:28.122Z,1.33
2023-04-20T04:02:28.262Z,1.30
2023-04-20T04:03:28.337Z,1.50
2023-04-20T04:04:28.415Z,1.29
2023-04-20T04:05:28.358Z,1.64
2023-04-20T04:06:28.170Z,1.77
2023-04-20T04:07:28.181Z,1.40
2023-04-20T04:08:28.194Z,1.42
2023-04-20T04:09:28.223Z,1.59
2023-04-20T04:10:28.215Z,1.35
2023-04-20T04:11:28.354Z,1.71
2023-04-20T04:12:29.126Z,1.65
2023-04-20T04:13:28.245Z,1.66
2023-04-20T04:14:28.246Z,1.57
2023-04-20T04:15:28.624Z,1.39
2023-04-20T04:16:28.319Z,1.66
2023-04-20T04:17:28.295Z,1.37
2023-04-20T04:18:28.296Z,1.59
2023-04-20T04:19:28.326Z,1.59
2023-04-20T04:20:28.340Z,1.38
2023-04-20T04:21:28.335Z,1.62
2023-04-20T04:22:30.447Z,1.64
2023-04-20T04:23:28.369Z,1.61
2023-04-20T04:24:28.381Z,1.42
2023-04-20T04:25:28.383Z,1.55
2023-04-20T04:26:28.372Z,1.49
2023-04-20T04:27:28.378Z,1.43
2023-04-20T04:28:28.393Z,1.52
2023-04-20T04:29:28.398Z,1.59
2023-04-20T04:30:28.402Z,1.47
2023-04-20T04:31:28.437Z,1.51
2023-04-20T04:32:28.463Z,1.56
2023-04-20T04:33:28.462Z,1.69
2023-04-20T04:34:28.454Z,1.34
2023-04-20T04:35:28.571Z,1.38
2023-04-20T04:36:28.506Z,1.49
2023-04-20T04:37:28.496Z,1.46
2023-04-20T04:38:28.512Z,1.21
2023-04-20T04:39:28.527Z,1.33
2023-04-20T04:40:28.569Z,1.51
2023-04-20T04:41:28.604Z,1.24
2023-04-20T04:42:28.631Z,1.40
2023-04-20T04:43:28.648Z,1.93
2023-04-20T04:44:28.664Z,1.58
2023-04-20T04:45:28.695Z,1.46
2023-04-20T04:46:28.763Z,1.39
2023-04-20T04:47:28.770Z,1.35
2023-04-20T04:48:28.844Z,1.66
2023-04-20T04:49:28.800Z,1.56
2023-04-20T04:50:28.817Z,1.35
2023-04-20T04:51:28.836Z,1.54
2023-04-20T04:52:28.850Z,1.54
2023-04-20T04:53:28.853Z,1.39
2023-04-20T04:54:28.843Z,1.61
2023-04-20T04:55:28.841Z,1.46
2023-04-20T04:56:28.933Z,1.68
2023-04-20T04:57:28.857Z,1.45
2023-04-20T04:58:28.846Z,1.53
2023-04-20T04:59:29.148Z,1.51
2023-04-20T05:00:28.849Z,1.37
2023-04-20T05:01:28.881Z,1.55
2023-04-20T05:02:29.036Z,1.55
2023-04-20T05:03:29.009Z,1.23
2023-04-20T05:04:29.029Z,1.28
2023-04-20T05:05:28.853Z,1.63
2023-04-20T05:06:28.840Z,1.14
2023-04-20T05:07:28.835Z,1.67
2023-04-20T05:08:28.838Z,1.29
2023-04-20T05:09:28.841Z,1.69
2023-04-20T05:10:28.845Z,1.32
2023-04-20T05:11:28.858Z,1.77
2023-04-20T05:12:28.840Z,1.54
2023-04-20T05:13:28.833Z,1.61
2023-04-20T05:14:28.840Z,1.61
2023-04-20T05:15:28.841Z,1.51
2023-04-20T05:16:28.889Z,1.53
2023-04-20T05:17:28.896Z,1.51
2023-04-20T05:18:28.845Z,1.56
2023-04-20T05:19:28.833Z,1.69
2023-04-20T05:20:28.832Z,1.55
2023-04-20T05:21:28.824Z,1.41
2023-04-20T05:22:28.818Z,1.41
2023-04-20T05:23:28.837Z,1.79
2023-04-20T05:24:28.813Z,1.70
2023-04-20T05:25:29.654Z,1.54
2023-04-20T05:26:28.834Z,1.77
2023-04-20T05:27:28.843Z,1.37
2023-04-20T05:28:28.840Z,1.61
2023-04-20T05:29:28.854Z,1.57
2023-04-20T05:30:28.846Z,1.77
2023-04-20T05:31:28.859Z,1.52
2023-04-20T05:32:28.853Z,1.53
2023-04-20T05:33:28.865Z,2.05
2023-04-20T05:34:28.895Z,1.74
2023-04-20T05:35:28.945Z,1.23
2023-04-20T05:36:29.004Z,1.52
2023-04-20T05:37:29.052Z,1.23
2023-04-20T05:38:29.112Z,1.81
2023-04-20T05:39:29.180Z,1.38
2023-04-20T05:40:29.215Z,3.24
2023-04-20T05:41:29.248Z,1.78
2023-04-20T05:42:29.323Z,1.78
2023-04-20T05:43:29.334Z,1.69
2023-04-20T05:44:29.411Z,1.82
2023-04-20T05:45:29.431Z,1.64
2023-04-20T05:46:29.561Z,1.84
2023-04-20T05:47:29.446Z,1.93
2023-04-20T05:48:30.146Z,1.69
2023-04-20T05:49:29.481Z,2.18
2023-04-20T05:50:29.493Z,1.87
2023-04-20T05:51:29.506Z,1.70
2023-04-20T05:52:29.518Z,1.69
2023-04-20T05:53:29.544Z,1.81
2023-04-20T05:54:29.572Z,1.50
2023-04-20T05:55:29.575Z,1.83
2023-04-20T05:56:30.169Z,2.23
2023-04-20T05:57:29.586Z,2.34
2023-04-20T05:58:29.708Z,1.95
2023-04-20T05:59:29.636Z,1.78
2023-04-20T06:00:29.652Z,1.60
2023-04-20T06:01:29.710Z,1.79
2023-04-20T06:02:29.816Z,1.60
2023-04-20T06:03:29.907Z,1.88
2023-04-20T06:04:29.960Z,1.85
2023-04-20T06:05:29.723Z,2.07
2023-04-20T06:06:29.754Z,1.53
2023-04-20T06:07:29.737Z,1.88
2023-04-20T06:08:29.756Z,1.91
2023-04-20T06:09:29.759Z,1.88
2023-04-20T06:10:30.687Z,2.25
2023-04-20T06:11:29.780Z,2.11
2023-04-20T06:12:30.047Z,2.45
2023-04-20T06:13:29.816Z,2.00
2023-04-20T06:14:29.829Z,1.69
2023-04-20T06:15:29.914Z,1.98
2023-04-20T06:16:29.957Z,1.98
2023-04-20T06:17:30.705Z,2.03
2023-04-20T06:18:29.879Z,1.67
2023-04-20T06:19:30.184Z,1.38
2023-04-20T06:20:29.893Z,2.34
2023-04-20T06:21:29.998Z,2.14
2023-04-20T06:22:30.685Z,2.51
2023-04-20T06:23:29.994Z,2.94
2023-04-20T06:24:29.987Z,2.64
2023-04-20T06:25:30.005Z,2.58
2023-04-20T06:26:29.980Z,2.82
2023-04-20T06:27:30.692Z,2.53
2023-04-20T06:28:30.002Z,2.60
2023-04-20T06:29:30.001Z,2.80
2023-04-20T06:30:30.041Z,2.78
2023-04-20T06:31:30.717Z,2.85
2023-04-20T06:32:30.024Z,3.08
2023-04-20T06:33:30.016Z,2.94
2023-04-20T06:34:30.020Z,2.72
2023-04-20T06:35:30.682Z,3.09
2023-04-20T06:36:30.009Z,2.64
2023-04-20T06:37:30.010Z,2.85
2023-04-20T06:38:30.006Z,2.85
2023-04-20T06:39:30.006Z,2.67
2023-04-20T06:40:30.164Z,2.60
2023-04-20T06:41:30.077Z,2.48
2023-04-20T06:42:30.607Z,2.42
2023-04-20T06:43:30.175Z,3.35
2023-04-20T06:44:30.186Z,3.09
2023-04-20T06:45:31.241Z,2.66
2023-04-20T06:46:30.505Z,2.95
2023-04-20T06:47:30.535Z,3.18
2023-04-20T06:48:32.660Z,3.28
2023-04-20T06:49:30.785Z,2.71
2023-04-20T06:50:30.843Z,2.72
2023-04-20T06:51:30.915Z,3.76
2023-04-20T06:52:30.968Z,3.46
2023-04-20T06:53:30.981Z,3.37
2023-04-20T06:54:30.997Z,3.43
2023-04-20T06:55:31.022Z,3.23
2023-04-20T06:56:31.190Z,3.23
2023-04-20T06:57:31.093Z,2.32
2023-04-20T06:58:31.694Z,2.82
2023-04-20T06:59:31.195Z,2.41
2023-04-20T07:00:31.161Z,2.25
2023-04-20T07:01:31.241Z,2.50
2023-04-20T07:02:31.361Z,2.73
2023-04-20T07:03:31.453Z,2.70
2023-04-20T07:04:31.383Z,2.93
2023-04-20T07:05:31.406Z,2.76
2023-04-20T07:06:31.451Z,2.93
2023-04-20T07:07:31.529Z,3.17
2023-04-20T07:08:31.560Z,3.12
2023-04-20T07:09:31.550Z,2.90
2023-04-20T07:10:31.542Z,2.90
2023-04-20T07:11:31.550Z,2.35
2023-04-20T07:12:31.570Z,2.45
2023-04-20T07:13:33.652Z,2.29
2023-04-20T07:14:31.641Z,2.80
2023-04-20T07:15:31.783Z,2.79
2023-04-20T07:16:31.831Z,2.73
2023-04-20T07:17:31.791Z,3.14
2023-04-20T07:18:33.950Z,2.71
2023-04-20T07:19:31.831Z,2.93
2023-04-20T07:20:31.926Z,2.95
2023-04-20T07:21:31.841Z,3.72
2023-04-20T07:22:31.819Z,2.13
2023-04-20T07:23:32.805Z,2.52
2023-04-20T07:24:31.816Z,2.45
2023-04-20T07:25:31.795Z,2.71
2023-04-20T07:26:31.793Z,3.02
2023-04-20T07:27:31.785Z,2.59
2023-04-20T07:28:31.791Z,2.72
2023-04-20T07:29:33.817Z,2.26
2023-04-20T07:30:32.722Z,2.32
2023-04-20T07:31:33.485Z,2.43
2023-04-20T07:32:31.763Z,2.65
2023-04-20T07:33:31.738Z,2.49
2023-04-20T07:34:31.742Z,2.33
2023-04-20T07:35:31.737Z,2.39
2023-04-20T07:36:31.785Z,2.31
2023-04-20T07:37:31.728Z,2.43
2023-04-20T07:38:32.202Z,2.55
2023-04-20T07:39:31.706Z,2.06
2023-04-20T07:40:31.706Z,2.28
2023-04-20T07:41:31.687Z,2.14
2023-04-20T07:42:31.686Z,2.25
2023-04-20T07:43:31.670Z,2.31
2023-04-20T07:44:32.216Z,1.99
2023-04-20T07:45:31.726Z,2.46
2023-04-20T07:46:31.640Z,1.76
2023-04-20T07:47:31.695Z,2.26
2023-04-20T07:48:31.633Z,2.26
2023-04-20T07:49:31.634Z,1.95
2023-04-20T07:50:31.714Z,2.36
2023-04-20T07:51:31.607Z,2.10
2023-04-20T07:52:32.137Z,2.15
2023-04-20T07:53:31.606Z,1.80
2023-04-20T07:54:31.594Z,2.13
2023-04-20T07:55:31.578Z,1.92
2023-04-20T07:56:31.573Z,1.97
2023-04-20T07:57:31.610Z,2.03
2023-04-20T07:58:31.558Z,1.72
2023-04-20T07:59:31.731Z,2.12
2023-04-20T08:00:31.583Z,1.86
2023-04-20T08:01:31.544Z,1.87
2023-04-20T08:02:31.641Z,2.40
2023-04-20T08:03:31.901Z,1.90
2023-04-20T08:04:31.834Z,1.73
2023-04-20T08:05:31.656Z,2.15
2023-04-20T08:06:31.504Z,1.91
2023-04-20T08:07:31.501Z,1.78
2023-04-20T08:08:31.518Z,2.14
2023-04-20T08:09:31.488Z,2.07
2023-04-20T08:10:31.474Z,2.23
2023-04-20T08:11:31.472Z,1.88
2023-04-20T08:12:31.497Z,2.17
2023-04-20T08:13:31.454Z,1.93
2023-04-20T08:14:31.448Z,3.11
2023-04-20T08:15:31.731Z,2.32
2023-04-20T08:16:31.524Z,1.97
2023-04-20T08:17:31.658Z,2.22
2023-04-20T08:18:31.429Z,2.14
2023-04-20T08:19:31.418Z,2.30
2023-04-20T08:21:31.401Z,2.66
2023-04-20T08:22:31.387Z,2.87
2023-04-20T08:23:31.388Z,3.12
2023-04-20T08:24:31.387Z,3.10
2023-04-20T08:25:31.376Z,5.04
2023-04-20T08:26:31.368Z,3.64
2023-04-20T08:27:31.357Z,3.56
2023-04-20T08:28:33.853Z,3.87
2023-04-20T08:29:31.355Z,3.40
2023-04-20T08:30:31.329Z,3.78
2023-04-20T08:31:31.352Z,3.28
2023-04-20T08:32:31.338Z,4.10
2023-04-20T08:33:31.310Z,2.97
2023-04-20T08:34:31.305Z,2.57
2023-04-20T08:35:31.292Z,2.61
2023-04-20T08:36:31.290Z,3.78
2023-04-20T08:37:32.836Z,2.52
2023-04-20T08:38:34.229Z,2.67
2023-04-20T08:39:31.268Z,3.23
2023-04-20T08:40:31.260Z,2.41
2023-04-20T08:41:31.252Z,2.61
2023-04-20T08:42:31.253Z,3.08
2023-04-20T08:43:31.236Z,2.80
2023-04-20T08:44:31.237Z,2.29
2023-04-20T08:45:31.237Z,2.51
2023-04-20T08:46:31.271Z,2.70
2023-04-20T08:47:31.247Z,4.53
2023-04-20T08:48:33.540Z,3.28
2023-04-20T08:49:31.294Z,2.92
2023-04-20T08:50:31.306Z,2.95
2023-04-20T08:51:31.367Z,2.84
2023-04-20T08:52:31.412Z,2.41
2023-04-20T08:53:31.453Z,2.15
2023-04-20T08:54:32.540Z,3.07
2023-04-20T08:55:31.564Z,2.44
2023-04-20T08:56:31.620Z,2.73
2023-04-20T08:57:31.765Z,3.10
2023-04-20T08:58:31.705Z,2.87
2023-04-20T08:59:31.793Z,2.82
2023-04-20T09:00:31.795Z,3.67
2023-04-20T09:01:35.489Z,2.67
2023-04-20T09:02:32.001Z,2.84
2023-04-20T09:03:31.888Z,3.07
2023-04-20T09:04:32.271Z,2.85
2023-04-20T09:05:32.032Z,2.53
2023-04-20T09:06:31.815Z,3.36
2023-04-20T09:07:31.801Z,2.92
2023-04-20T09:08:31.795Z,2.34
2023-04-20T09:09:31.792Z,2.72
2023-04-20T09:10:31.910Z,3.00
2023-04-20T09:11:31.780Z,2.97
2023-04-20T09:12:31.780Z,2.97
2023-04-20T09:13:32.665Z,3.16
2023-04-20T09:14:31.764Z,2.21
2023-04-20T09:15:31.752Z,3.26
2023-04-20T09:16:31.778Z,2.49
2023-04-20T09:17:31.760Z,2.74
2023-04-20T09:18:31.767Z,3.07
2023-04-20T09:19:31.789Z,3.12
2023-04-20T09:20:31.700Z,3.67
2023-04-20T09:21:32.244Z,3.89
2023-04-20T09:22:32.262Z,3.97
2023-04-20T09:23:31.694Z,4.65
2023-04-20T09:24:31.701Z,4.24
2023-04-20T09:25:31.674Z,4.45
2023-04-20T09:26:31.670Z,4.14
2023-04-20T09:27:31.675Z,5.15
2023-04-20T09:28:32.169Z,4.50
2023-04-20T09:29:31.650Z,5.53
2023-04-20T09:30:31.665Z,4.73
2023-04-20T09:31:32.304Z,4.55
2023-04-20T09:32:31.673Z,5.55
2023-04-20T09:33:31.617Z,8.17
2023-04-20T09:34:31.618Z,6.05
2023-04-20T09:35:31.610Z,4.43
2023-04-20T09:36:31.623Z,4.12
2023-04-20T09:37:31.604Z,3.84
2023-04-20T09:38:31.597Z,4.76
2023-04-20T09:39:31.602Z,5.17
2023-04-20T09:40:31.638Z,4.73
2023-04-20T09:41:31.689Z,6.71
2023-04-20T09:42:31.718Z,6.00
2023-04-20T09:43:31.835Z,4.78
2023-04-20T09:44:31.925Z,4.40
2023-04-20T09:45:31.837Z,4.66
2023-04-20T09:46:31.869Z,4.45
2023-04-20T09:47:31.915Z,4.17
2023-04-20T09:48:32.358Z,4.30
2023-04-20T09:49:31.970Z,4.53
2023-04-20T09:50:48.177Z,5.08
2023-04-20T09:51:33.002Z,5.17
2023-04-20T09:52:32.058Z,7.11
2023-04-20T09:53:32.031Z,5.01
2023-04-20T09:54:31.988Z,7.58
2023-04-20T09:55:31.980Z,5.89
2023-04-20T09:56:31.957Z,6.67
2023-04-20T09:57:31.960Z,6.40
2023-04-20T09:58:31.944Z,5.54
2023-04-20T09:59:31.941Z,7.47
2023-04-20T10:00:31.939Z,5.93
2023-04-20T10:01:31.962Z,5.41
2023-04-20T10:02:32.118Z,4.88
2023-04-20T10:03:32.072Z,5.48
2023-04-20T10:04:32.073Z,5.12
2023-04-20T10:05:31.899Z,6.15
2023-04-20T10:06:31.899Z,6.05
2023-04-20T10:07:31.905Z,5.44
2023-04-20T10:08:31.918Z,6.51
2023-04-20T10:09:31.868Z,5.89
2023-04-20T10:10:31.869Z,6.36
2023-04-20T10:11:44.552Z,6.20
2023-04-20T10:12:32.872Z,7.05
2023-04-20T10:13:31.852Z,6.24
2023-04-20T10:14:31.853Z,6.84
2023-04-20T10:15:31.838Z,6.34
2023-04-20T10:16:31.858Z,5.87
2023-04-20T10:17:31.917Z,5.78
2023-04-20T10:18:31.979Z,5.11
2023-04-20T10:19:31.815Z,6.67
2023-04-20T10:20:31.804Z,6.86
2023-04-20T10:21:31.822Z,5.74
2023-04-20T10:22:31.841Z,5.89
2023-04-20T10:23:31.886Z,4.52
2023-04-20T10:24:31.963Z,4.94
2023-04-20T10:25:31.995Z,6.48
2023-04-20T10:26:32.055Z,4.54
2023-04-20T10:27:32.791Z,5.79
2023-04-20T10:28:32.110Z,5.26
2023-04-20T10:29:33.133Z,5.23
2023-04-20T10:30:32.144Z,5.65
2023-04-20T10:31:32.268Z,4.93
2023-04-20T10:32:32.211Z,4.90
2023-04-20T10:33:32.206Z,6.01
2023-04-20T10:34:32.280Z,6.74
2023-04-20T10:35:32.274Z,4.71
2023-04-20T10:36:32.386Z,5.46
2023-04-20T10:37:32.483Z,4.85
2023-04-20T10:38:32.333Z,6.80
2023-04-20T10:39:32.339Z,8.72
2023-04-20T10:40:32.362Z,5.56
2023-04-20T10:41:32.356Z,6.01
2023-04-20T10:42:32.336Z,5.50
2023-04-20T10:43:32.331Z,6.20
2023-04-20T10:44:32.787Z,5.30
2023-04-20T10:45:32.340Z,4.41
2023-04-20T10:46:32.411Z,4.66
2023-04-20T10:47:32.565Z,5.08
2023-04-20T10:48:32.359Z,4.69
2023-04-20T10:49:32.424Z,4.62
2023-04-20T10:50:32.378Z,4.42
2023-04-20T10:51:32.407Z,4.14
2023-04-20T10:52:32.416Z,4.12
2023-04-20T10:53:32.484Z,4.29
2023-04-20T10:54:32.440Z,5.06
2023-04-20T10:55:32.520Z,4.47
2023-04-20T10:56:32.454Z,3.67
2023-04-20T10:57:32.483Z,4.62
2023-04-20T10:58:32.501Z,7.19
2023-04-20T10:59:32.517Z,5.80
2023-04-20T11:00:32.531Z,6.04
2023-04-20T11:01:32.632Z,4.95
2023-04-20T11:02:32.777Z,4.50
2023-04-20T11:03:32.691Z,3.70
2023-04-20T11:04:32.817Z,3.76
2023-04-20T11:05:32.654Z,4.25
2023-04-20T11:06:32.685Z,5.66
2023-04-20T11:07:32.694Z,4.44
2023-04-20T11:08:32.722Z,4.55
2023-04-20T11:09:32.767Z,3.90
2023-04-20T11:10:32.770Z,4.29
2023-04-20T11:11:32.799Z,4.30
2023-04-20T11:12:32.835Z,4.54
2023-04-20T11:13:33.802Z,4.73
2023-04-20T11:14:32.886Z,4.56
2023-04-20T11:15:32.917Z,4.26
2023-04-20T11:16:46.884Z,3.71
2023-04-20T11:17:33.989Z,3.47
2023-04-20T11:18:32.922Z,5.29
2023-04-20T11:19:32.940Z,3.55
2023-04-20T11:20:32.918Z,4.85
2023-04-20T11:21:32.905Z,3.92
2023-04-20T11:22:32.903Z,4.71
2023-04-20T11:23:32.885Z,5.36
2023-04-20T11:24:32.912Z,4.20
2023-04-20T11:25:32.885Z,4.09
2023-04-20T11:26:32.873Z,3.76
2023-04-20T11:27:32.859Z,3.93
2023-04-20T11:28:32.890Z,4.02
2023-04-20T11:29:32.849Z,4.09
2023-04-20T11:30:32.862Z,4.50
2023-04-20T11:31:32.980Z,5.03
2023-04-20T11:32:33.140Z,4.32
2023-04-20T11:33:33.069Z,3.54
2023-04-20T11:34:33.064Z,3.68
2023-04-20T11:35:33.115Z,4.03
2023-04-20T11:36:33.158Z,4.46
2023-04-20T11:37:33.218Z,4.19
2023-04-20T11:38:33.273Z,4.33
2023-04-20T11:39:33.302Z,3.73
2023-04-20T11:40:33.339Z,3.87
2023-04-20T11:41:33.390Z,3.43
2023-04-20T11:42:33.429Z,4.50
2023-04-20T11:43:33.488Z,3.10
2023-04-20T11:44:33.533Z,3.48
2023-04-20T11:45:35.663Z,4.66
2023-04-20T11:46:33.586Z,4.07
2023-04-20T11:47:33.688Z,3.61
2023-04-20T11:48:33.562Z,4.21
2023-04-20T11:49:33.610Z,4.01
2023-04-20T11:50:33.556Z,3.31
2023-04-20T11:51:33.622Z,4.21
2023-04-20T11:52:33.546Z,4.24
2023-04-20T11:53:33.528Z,3.87
2023-04-20T11:54:33.525Z,4.41
2023-04-20T11:55:33.519Z,3.36
2023-04-20T11:56:33.549Z,3.51
2023-04-20T11:57:33.524Z,3.93
2023-04-20T11:58:33.486Z,4.95
2023-04-20T11:59:33.507Z,6.08
2023-04-20T12:00:33.685Z,4.44
2023-04-20T12:01:34.312Z,4.08
2023-04-20T12:02:33.631Z,3.72
2023-04-20T12:03:33.632Z,3.52
2023-04-20T12:04:33.600Z,2.93
2023-04-20T12:05:33.519Z,3.26
2023-04-20T12:06:33.435Z,3.26
2023-04-20T12:07:33.418Z,4.00
2023-04-20T12:08:33.411Z,3.86
2023-04-20T12:09:34.238Z,3.69
2023-04-20T12:10:33.402Z,3.31
2023-04-20T12:11:33.409Z,3.06
2023-04-20T12:12:33.384Z,3.21
2023-04-20T12:13:33.369Z,3.94
2023-04-20T12:14:34.281Z,3.74
2023-04-20T12:15:33.445Z,3.26
2023-04-20T12:16:40.343Z,2.84
2023-04-20T12:17:33.402Z,3.46
2023-04-20T12:18:33.355Z,3.23
2023-04-20T12:19:33.342Z,2.68
2023-04-20T12:20:33.341Z,3.72
2023-04-20T12:21:33.326Z,3.17
2023-04-20T12:22:33.322Z,2.74
2023-04-20T12:23:33.314Z,2.84
2023-04-20T12:24:33.318Z,3.30
2023-04-20T12:25:33.295Z,3.12
2023-04-20T12:26:38.343Z,4.09
2023-04-20T12:27:34.282Z,3.57
2023-04-20T12:28:33.275Z,3.17
2023-04-20T12:29:33.830Z,3.43
2023-04-20T12:30:33.268Z,3.13
2023-04-20T12:31:33.885Z,3.32
2023-04-20T12:32:33.888Z,3.01
2023-04-20T12:33:33.240Z,3.13
2023-04-20T12:34:33.228Z,2.98
2023-04-20T12:35:33.217Z,2.88
2023-04-20T12:36:33.224Z,2.81
2023-04-20T12:37:33.200Z,2.79
2023-04-20T12:38:33.208Z,2.74
2023-04-20T12:39:33.211Z,2.35
2023-04-20T12:40:33.198Z,3.36
2023-04-20T12:41:33.297Z,2.88
2023-04-20T12:42:33.237Z,2.92
2023-04-20T12:43:33.182Z,2.64
2023-04-20T12:44:33.151Z,3.19
2023-04-20T12:45:33.154Z,2.71
2023-04-20T12:46:33.178Z,3.02
2023-04-20T12:47:33.250Z,2.99
2023-04-20T12:48:33.175Z,3.10
2023-04-20T12:49:33.938Z,2.78
2023-04-20T12:50:33.339Z,2.46
2023-04-20T12:51:33.298Z,2.05
2023-04-20T12:52:33.323Z,2.40
2023-04-20T12:53:33.308Z,2.69
2023-04-20T12:54:33.366Z,2.27
2023-04-20T12:55:33.357Z,2.51
2023-04-20T12:56:33.357Z,2.74
2023-04-20T12:57:33.355Z,2.55
2023-04-20T12:58:33.361Z,2.85
2023-04-20T12:59:33.367Z,2.52
2023-04-20T13:00:33.487Z,3.15
2023-04-20T13:01:33.634Z,2.33
2023-04-20T13:02:33.613Z,2.29
2023-04-20T13:03:33.709Z,2.29
2023-04-20T13:04:33.565Z,2.48
2023-04-20T13:05:33.552Z,2.73
2023-04-20T13:06:33.578Z,2.36
2023-04-20T13:07:33.576Z,2.18
2023-04-20T13:08:33.600Z,2.46
2023-04-20T13:09:33.600Z,3.35
2023-04-20T13:10:33.694Z,2.24
2023-04-20T13:11:33.693Z,2.53
2023-04-20T13:12:33.711Z,2.09
2023-04-20T13:13:34.356Z,2.09
2023-04-20T13:14:33.742Z,2.71
2023-04-20T13:15:39.238Z,2.53
2023-04-20T13:16:34.798Z,2.52
2023-04-20T13:17:33.836Z,2.10
2023-04-20T13:18:33.725Z,2.43
2023-04-20T13:19:34.406Z,2.62